createdAt,value
2018-05-26T00:01:01.540Z,8.63
2018-05-26T00:03:29.073Z,9.43
2018-05-26T00:05:56.660Z,9.83
2018-05-26T00:08:24.211Z,9.27
2018-05-26T00:10:51.785Z,8.60
2018-05-26T00:13:19.342Z,11.20
2018-05-26T00:15:46.929Z,10.53
2018-05-26T00:18:15.252Z,9.47
2018-05-26T00:20:42.834Z,9.77
2018-05-26T00:23:10.462Z,9.80
2018-05-26T00:25:38.076Z,9.17
2018-05-26T00:28:05.635Z,9.67
2018-05-26T00:30:33.219Z,9.80
2018-05-26T00:33:00.853Z,9.27
2018-05-26T00:35:28.434Z,11.33
2018-05-26T00:37:56.740Z,10.20
2018-05-26T00:40:24.287Z,10.00
2018-05-26T00:42:51.860Z,10.43
2018-05-26T00:45:19.423Z,10.43
2018-05-26T00:47:47.099Z,10.10
2018-05-26T00:50:14.645Z,12.13
2018-05-26T00:52:42.205Z,9.87
2018-05-26T00:55:09.790Z,10.93
2018-05-26T00:57:37.342Z,10.97
2018-05-26T01:00:04.947Z,11.27
2018-05-26T01:02:33.307Z,12.20
2018-05-26T01:05:00.866Z,11.40
2018-05-26T01:07:28.441Z,13.93
2018-05-26T01:09:56.788Z,11.23
2018-05-26T01:12:24.377Z,11.33
2018-05-26T01:14:51.949Z,11.87
2018-05-26T01:17:20.286Z,11.50
2018-05-26T01:19:47.883Z,11.90
2018-05-26T01:22:16.210Z,13.30
2018-05-26T01:24:43.765Z,11.73
2018-05-26T01:27:11.346Z,13.93
2018-05-26T01:29:38.904Z,13.53
2018-05-26T01:32:06.449Z,14.03
2018-05-26T01:34:34.041Z,13.83
2018-05-26T01:37:01.643Z,13.40
2018-05-26T01:39:29.364Z,15.37
2018-05-26T01:41:56.946Z,14.43
2018-05-26T01:44:25.296Z,14.73
2018-05-26T01:46:52.883Z,15.00
2018-05-26T01:49:20.452Z,15.67
2018-05-26T01:51:48.805Z,16.17
2018-05-26T01:54:16.363Z,15.77
2018-05-26T01:56:44.112Z,15.60
2018-05-26T01:59:12.463Z,16.87
2018-05-26T02:01:40.016Z,14.60
2018-05-26T02:04:07.571Z,14.63
2018-05-26T02:06:35.137Z,15.93
2018-05-26T02:09:02.694Z,16.67
2018-05-26T02:11:30.281Z,15.57
2018-05-26T02:13:58.628Z,18.50
2018-05-26T02:16:26.958Z,17.33
2018-05-26T02:18:54.551Z,17.63
2018-05-26T02:21:22.899Z,17.57
2018-05-26T02:23:50.446Z,18.30
2018-05-26T02:26:18.060Z,18.33
2018-05-26T02:28:46.373Z,20.00
2018-05-26T02:31:13.932Z,18.63
2018-05-26T02:33:54.406Z,19.13
2018-05-26T02:36:22.112Z,18.93
2018-05-26T02:38:50.468Z,19.67
2018-05-26T02:41:18.031Z,19.63
2018-05-26T02:43:45.616Z,19.90
2018-05-26T02:46:13.996Z,18.47
2018-05-26T02:48:42.319Z,19.50
2018-05-26T02:51:09.896Z,20.00
2018-05-26T02:53:37.479Z,19.03
2018-05-26T02:56:05.063Z,18.97
2018-05-26T02:58:33.459Z,20.57
2018-05-26T03:01:01.023Z,19.30
2018-05-26T03:03:28.578Z,20.30
2018-05-26T03:06:01.848Z,20.40
2018-05-26T03:08:34.943Z,17.83
2018-05-26T03:11:08.789Z,18.70
2018-05-26T03:13:41.870Z,18.33
2018-05-26T03:19:22.572Z,18.80
2018-05-26T03:21:50.187Z,17.23
2018-05-26T03:24:17.759Z,15.27
2018-05-26T03:26:45.649Z,14.93
2018-05-26T03:29:14.011Z,16.80
2018-05-26T03:31:43.167Z,21.23
2018-05-26T03:34:10.732Z,21.23
2018-05-26T03:36:38.344Z,19.10
2018-05-26T03:39:07.316Z,20.30
2018-05-26T03:41:35.137Z,20.63
2018-05-26T03:44:02.919Z,19.13
2018-05-26T03:46:30.510Z,18.50
2018-05-26T03:48:58.893Z,18.80
2018-05-26T03:51:27.233Z,21.07
2018-05-26T03:53:54.840Z,23.37
2018-05-26T03:56:35.157Z,22.43
2018-05-26T03:59:14.733Z,21.10
2018-05-26T04:01:43.095Z,17.67
2018-05-26T04:04:10.710Z,17.10
2018-05-26T04:06:38.441Z,16.47
2018-05-26T04:09:06.786Z,16.30
2018-05-26T04:11:34.381Z,15.87
2018-05-26T04:14:02.797Z,16.17
2018-05-26T04:16:30.384Z,16.13
2018-05-26T04:18:57.967Z,18.13
2018-05-26T04:21:26.361Z,17.07
2018-05-26T04:23:54.698Z,16.70
2018-05-26T04:26:22.856Z,17.50
2018-05-26T04:28:50.451Z,17.97
2018-05-26T04:31:18.051Z,18.63
2018-05-26T04:33:45.610Z,17.57
2018-05-26T04:36:13.970Z,17.50
2018-05-26T04:38:41.575Z,18.57
2018-05-26T04:41:09.182Z,18.33
2018-05-26T04:43:37.663Z,17.13
2018-05-26T04:46:06.050Z,18.10
2018-05-26T04:48:33.629Z,17.20
2018-05-26T04:51:01.401Z,16.60
2018-05-26T04:53:28.998Z,17.33
2018-05-26T04:55:56.607Z,17.17
2018-05-26T04:58:24.236Z,16.00
2018-05-26T05:00:52.563Z,17.30
2018-05-26T05:03:20.994Z,16.40
2018-05-26T05:05:49.417Z,15.97
2018-05-26T05:08:17.035Z,14.70
2018-05-26T05:10:45.831Z,15.60
2018-05-26T05:13:14.181Z,16.27
2018-05-26T05:15:42.670Z,15.97
2018-05-26T05:18:10.730Z,15.97
2018-05-26T05:20:39.836Z,16.63
2018-05-26T05:23:07.455Z,16.37
2018-05-26T05:25:35.044Z,15.13
2018-05-26T05:28:02.670Z,15.07
2018-05-26T05:30:30.291Z,16.73
2018-05-26T05:32:58.913Z,14.40
2018-05-26T05:35:26.589Z,15.23
2018-05-26T05:37:54.163Z,14.20
2018-05-26T05:40:21.783Z,13.10
2018-05-26T05:42:49.386Z,15.17
2018-05-26T05:45:17.753Z,13.73
2018-05-26T05:47:45.396Z,15.07
2018-05-26T05:50:13.683Z,15.30
2018-05-26T05:52:41.261Z,14.93
2018-05-26T05:55:08.851Z,15.33
2018-05-26T05:57:37.329Z,14.80
2018-05-26T06:00:05.683Z,15.53
2018-05-26T06:02:33.243Z,16.60
2018-05-26T06:05:00.870Z,15.97
2018-05-26T06:07:28.452Z,17.00
2018-05-26T06:09:56.189Z,18.03
2018-05-26T06:12:23.791Z,20.47
2018-05-26T06:14:51.411Z,21.40
2018-05-26T06:17:19.130Z,19.87
2018-05-26T06:19:46.709Z,19.27
2018-05-26T06:22:14.313Z,18.53
2018-05-26T06:24:41.967Z,19.67
2018-05-26T06:27:09.539Z,23.63
2018-05-26T06:29:37.171Z,23.17
2018-05-26T06:32:04.844Z,21.13
2018-05-26T06:34:32.437Z,18.30
2018-05-26T06:37:00.037Z,19.73
2018-05-26T06:39:27.971Z,19.83
2018-05-26T06:41:56.375Z,16.30
2018-05-26T06:44:24.704Z,16.97
2018-05-26T06:46:52.302Z,18.57
2018-05-26T06:49:20.671Z,17.80
2018-05-26T06:51:49.019Z,20.07
2018-05-26T06:54:17.229Z,17.33
2018-05-26T06:56:45.564Z,17.00
2018-05-26T06:59:13.243Z,18.57
2018-05-26T07:01:41.087Z,16.53
2018-05-26T07:04:08.699Z,17.13
2018-05-26T07:06:37.239Z,17.03
2018-05-26T07:09:04.844Z,16.97
2018-05-26T07:11:33.169Z,16.73
2018-05-26T07:14:00.974Z,15.73
2018-05-26T07:16:29.774Z,16.00
2018-05-26T07:18:58.143Z,15.83
2018-05-26T07:21:26.477Z,15.53
2018-05-26T07:23:54.162Z,14.70
2018-05-26T07:26:21.756Z,15.87
2018-05-26T07:28:49.333Z,13.97
2018-05-26T07:31:17.210Z,13.60
2018-05-26T07:33:44.873Z,17.23
2018-05-26T07:36:12.432Z,12.63
2018-05-26T07:38:40.037Z,14.47
2018-05-26T07:41:07.682Z,11.07
2018-05-26T07:43:35.243Z,13.57
2018-05-26T07:46:02.826Z,12.33
2018-05-26T07:48:30.388Z,12.10
2018-05-26T07:50:58.897Z,10.23
2018-05-26T07:53:26.480Z,11.10
2018-05-26T07:55:54.264Z,11.87
2018-05-26T07:58:21.951Z,10.47
2018-05-26T08:00:50.219Z,8.53
2018-05-26T08:03:17.807Z,8.03
2018-05-26T08:05:45.387Z,7.33
2018-05-26T08:08:12.983Z,8.60
2018-05-26T08:10:40.591Z,10.90
2018-05-26T08:13:08.164Z,8.03
2018-05-26T08:15:36.875Z,6.77
2018-05-26T08:18:04.489Z,6.00
2018-05-26T08:20:32.826Z,5.67
2018-05-26T08:23:00.388Z,5.80
2018-05-26T08:25:28.022Z,5.23
2018-05-26T08:27:55.595Z,5.13
2018-05-26T08:30:23.195Z,5.63
2018-05-26T08:32:51.627Z,7.73
2018-05-26T08:35:19.380Z,5.83
2018-05-26T08:37:47.001Z,6.10
2018-05-26T08:40:15.341Z,5.37
2018-05-26T08:42:43.004Z,5.97
2018-05-26T08:45:11.203Z,6.30
2018-05-26T08:47:38.813Z,5.60
2018-05-26T08:50:06.675Z,4.00
2018-05-26T08:52:34.278Z,4.50
2018-05-26T08:55:03.253Z,4.60
2018-05-26T08:57:30.843Z,5.13
2018-05-26T08:59:58.398Z,5.13
2018-05-26T09:02:26.013Z,5.03
2018-05-26T09:04:53.572Z,5.63
2018-05-26T09:07:21.197Z,5.37
2018-05-26T09:09:49.925Z,4.33
2018-05-26T09:12:17.481Z,4.77
2018-05-26T09:14:45.150Z,3.70
2018-05-26T09:17:12.820Z,3.73
2018-05-26T09:19:40.408Z,4.33
2018-05-26T09:22:07.984Z,4.47
2018-05-26T09:24:36.545Z,5.00
2018-05-26T09:27:04.196Z,4.13
2018-05-26T09:29:33.273Z,3.73
2018-05-26T09:32:00.864Z,3.50
2018-05-26T09:34:28.433Z,3.83
2018-05-26T09:36:57.876Z,3.60
2018-05-26T09:39:25.488Z,3.67
2018-05-26T09:41:53.043Z,5.53
2018-05-26T09:44:20.616Z,4.03
2018-05-26T09:46:49.256Z,3.20
2018-05-26T09:49:16.825Z,3.47
2018-05-26T09:51:44.475Z,3.40
2018-05-26T09:54:12.105Z,2.67
2018-05-26T09:56:39.785Z,3.90
2018-05-26T09:59:07.335Z,3.40
2018-05-26T10:01:34.919Z,3.20
2018-05-26T10:04:03.831Z,2.63
2018-05-26T10:06:31.588Z,3.00
2018-05-26T10:08:59.133Z,2.63
2018-05-26T10:11:26.712Z,3.00
2018-05-26T10:13:55.183Z,2.83
2018-05-26T10:16:23.659Z,3.20
2018-05-26T10:18:51.249Z,3.50
2018-05-26T10:21:19.558Z,3.50
2018-05-26T10:23:47.347Z,3.43
2018-05-26T10:26:14.910Z,3.07
2018-05-26T10:28:42.493Z,3.73
2018-05-26T10:31:10.215Z,2.70
2018-05-26T10:33:37.774Z,3.40
2018-05-26T10:36:05.338Z,2.70
2018-05-26T10:38:32.943Z,3.10
2018-05-26T10:41:00.540Z,2.60
2018-05-26T10:43:28.106Z,2.60
2018-05-26T10:46:18.218Z,2.40
2018-05-26T10:48:45.808Z,2.50
2018-05-26T10:51:14.172Z,2.53
2018-05-26T10:53:41.748Z,3.30
2018-05-26T10:56:10.128Z,2.57
2018-05-26T10:58:38.568Z,3.17
2018-05-26T11:01:06.180Z,2.43
2018-05-26T11:03:34.559Z,2.37
2018-05-26T11:06:02.939Z,2.67
2018-05-26T11:08:31.479Z,3.03
2018-05-26T11:10:59.047Z,2.37
2018-05-26T11:13:26.640Z,2.30
2018-05-26T11:15:54.225Z,1.90
2018-05-26T11:18:21.792Z,2.58
2018-05-26T11:20:49.378Z,2.47
2018-05-26T11:23:16.986Z,2.47
2018-05-26T11:25:44.569Z,2.47
2018-05-26T11:28:12.129Z,2.77
2018-05-26T11:30:39.757Z,3.87
2018-05-26T11:33:08.301Z,2.50
2018-05-26T11:35:35.868Z,2.25
2018-05-26T11:38:04.057Z,2.72
2018-05-26T11:40:31.637Z,3.53
2018-05-26T11:42:59.978Z,4.40
2018-05-26T11:45:28.524Z,5.40
2018-05-26T11:47:56.093Z,5.35
2018-05-26T11:50:23.670Z,2.70
2018-05-26T11:52:51.257Z,3.00
2018-05-26T11:55:20.781Z,2.70
2018-05-26T11:57:48.414Z,3.92
2018-05-26T12:00:15.985Z,2.83
2018-05-26T12:02:44.315Z,2.20
2018-05-26T12:05:11.917Z,2.08
2018-05-26T12:07:40.247Z,2.05
2018-05-26T12:10:07.827Z,2.00
2018-05-26T12:12:35.670Z,2.42
2018-05-26T12:15:03.268Z,2.85
2018-05-26T12:17:30.929Z,2.97
2018-05-26T12:19:58.497Z,2.42
2018-05-26T12:22:26.117Z,3.10
2018-05-26T12:24:53.713Z,2.15
2018-05-26T12:27:22.051Z,2.00
2018-05-26T12:29:49.607Z,2.72
2018-05-26T12:32:17.250Z,2.30
2018-05-26T12:34:45.535Z,2.00
2018-05-26T12:37:13.110Z,4.28
2018-05-26T12:39:40.725Z,2.25
2018-05-26T12:42:09.133Z,2.28
2018-05-26T12:44:36.688Z,3.42
2018-05-26T12:47:04.273Z,1.85
2018-05-26T12:49:31.842Z,2.05
2018-05-26T12:51:59.488Z,2.33
2018-05-26T12:54:27.048Z,1.85
2018-05-26T12:56:54.708Z,3.83
2018-05-26T12:59:22.458Z,2.20
2018-05-26T13:01:50.105Z,2.83
2018-05-26T13:04:17.685Z,2.67
2018-05-26T13:06:45.448Z,2.27
2018-05-26T13:09:13.055Z,2.30
2018-05-26T13:11:41.582Z,5.75
2018-05-26T13:14:09.189Z,2.15
2018-05-26T13:16:37.577Z,2.33
2018-05-26T13:19:05.917Z,2.90
2018-05-26T13:21:33.587Z,2.87
2018-05-26T13:24:01.185Z,2.72
2018-05-26T13:26:28.814Z,3.35
2018-05-26T13:28:56.381Z,4.50
2018-05-26T13:31:23.989Z,3.23
2018-05-26T13:33:51.699Z,3.17
2018-05-26T13:36:19.300Z,2.80
2018-05-26T13:38:46.883Z,3.00
2018-05-26T13:41:14.469Z,4.20
2018-05-26T13:43:42.028Z,2.50
2018-05-26T13:46:09.603Z,3.63
2018-05-26T13:48:37.187Z,3.70
2018-05-26T13:51:05.802Z,2.50
2018-05-26T13:53:33.529Z,3.30
2018-05-26T13:56:01.755Z,4.40
2018-05-26T13:58:29.363Z,2.93
2018-05-26T14:00:57.699Z,2.87
2018-05-26T14:03:25.271Z,3.27
2018-05-26T14:05:52.895Z,3.30
2018-05-26T14:08:20.465Z,3.17
2018-05-26T14:10:48.058Z,3.87
2018-05-26T14:13:15.657Z,3.73
2018-05-26T14:15:43.218Z,7.77
2018-05-26T14:18:10.919Z,4.70
2018-05-26T14:20:38.485Z,4.63
2018-05-26T14:23:06.095Z,4.57
2018-05-26T14:25:33.691Z,4.10
2018-05-26T14:28:01.259Z,5.43
2018-05-26T14:30:28.853Z,6.07
2018-05-26T14:32:57.276Z,6.60
2018-05-26T14:35:24.858Z,4.93
2018-05-26T14:37:52.456Z,4.47
2018-05-26T14:40:20.867Z,7.03
2018-05-26T14:42:48.439Z,5.40
2018-05-26T14:45:16.044Z,5.83
2018-05-26T14:47:44.378Z,5.23
2018-05-26T14:50:11.938Z,5.13
2018-05-26T14:52:39.545Z,5.20
2018-05-26T14:55:07.883Z,4.70
2018-05-26T14:57:35.503Z,5.50
2018-05-26T15:00:03.244Z,5.70
2018-05-26T15:02:31.669Z,5.43
2018-05-26T15:04:59.343Z,8.10
2018-05-26T15:07:27.039Z,6.67
2018-05-26T15:09:55.371Z,7.17
2018-05-26T15:12:22.942Z,5.63
2018-05-26T15:14:50.805Z,6.13
2018-05-26T15:17:18.466Z,5.57
2018-05-26T15:19:46.030Z,8.70
2018-05-26T15:22:13.694Z,5.87
2018-05-26T15:24:41.540Z,6.93
2018-05-26T15:27:09.201Z,5.50
2018-05-26T15:29:36.784Z,5.03
2018-05-26T15:32:04.364Z,5.33
2018-05-26T15:34:32.704Z,5.20
2018-05-26T15:37:00.320Z,3.97
2018-05-26T15:39:28.675Z,3.43
2018-05-26T15:41:56.375Z,5.23
2018-05-26T15:44:24.158Z,6.00
2018-05-26T15:46:51.744Z,7.07
2018-05-26T15:49:19.347Z,5.90
2018-05-26T15:51:47.770Z,7.10
2018-05-26T15:54:15.395Z,9.20
2018-05-26T15:56:42.980Z,7.27
2018-05-26T15:59:10.949Z,8.10
2018-05-26T16:01:38.539Z,8.30
2018-05-26T16:04:06.194Z,5.87
2018-05-26T16:06:33.801Z,8.50
2018-05-26T16:09:02.160Z,8.83
2018-05-26T16:11:30.545Z,7.23
2018-05-26T16:13:58.879Z,12.50
2018-05-26T16:16:26.537Z,7.27
2018-05-26T16:18:54.188Z,7.40
2018-05-26T16:21:21.742Z,7.73
2018-05-26T16:23:49.944Z,7.03
2018-05-26T16:26:17.537Z,7.00
2018-05-26T16:28:45.872Z,7.03
2018-05-26T16:31:13.448Z,7.87
2018-05-26T16:33:41.055Z,6.23
2018-05-26T16:36:08.732Z,9.03
2018-05-26T16:38:36.848Z,6.30
2018-05-26T16:41:04.517Z,6.87
2018-05-26T16:43:32.127Z,6.30
2018-05-26T16:45:59.731Z,7.53
2018-05-26T16:48:27.310Z,7.70
2018-05-26T16:50:55.652Z,7.63
2018-05-26T16:53:23.290Z,6.50
2018-05-26T16:55:51.013Z,6.63
2018-05-26T16:58:19.349Z,9.90
2018-05-26T17:00:46.996Z,6.03
2018-05-26T17:03:14.622Z,6.87
2018-05-26T17:05:42.262Z,6.07
2018-05-26T17:08:09.896Z,7.23
2018-05-26T17:10:37.457Z,6.93
2018-05-26T17:13:05.061Z,6.73
2018-05-26T17:15:33.915Z,10.07
2018-05-26T17:18:01.493Z,10.93
2018-05-26T17:20:29.895Z,11.23
2018-05-26T17:22:57.500Z,11.30
2018-05-26T17:25:25.086Z,9.90
2018-05-26T17:27:52.708Z,8.77
2018-05-26T17:30:20.317Z,7.53
2018-05-26T17:32:48.686Z,9.57
2018-05-26T17:35:17.026Z,8.20
2018-05-26T17:37:44.584Z,7.20
2018-05-26T17:40:12.184Z,8.10
2018-05-26T17:42:40.568Z,6.33
2018-05-26T17:45:08.992Z,7.03
2018-05-26T17:47:36.569Z,7.33
2018-05-26T17:50:04.145Z,8.40
2018-05-26T17:52:31.815Z,6.47
2018-05-26T17:54:59.391Z,7.80
2018-05-26T17:57:27.730Z,7.20
2018-05-26T17:59:55.466Z,9.00
2018-05-26T18:02:23.038Z,9.63
2018-05-26T18:04:50.621Z,6.73
2018-05-26T18:07:18.237Z,8.40
2018-05-26T18:09:45.825Z,6.07
2018-05-26T18:12:13.391Z,5.53
2018-05-26T18:14:41.131Z,8.00
2018-05-26T18:17:08.712Z,6.53
2018-05-26T18:19:36.334Z,6.37
2018-05-26T18:22:03.916Z,5.27
2018-05-26T18:24:31.485Z,6.37
2018-05-26T18:26:59.089Z,8.53
2018-05-26T18:29:27.434Z,7.40
2018-05-26T18:31:56.151Z,15.23
2018-05-26T18:34:24.781Z,11.27
2018-05-26T18:36:52.377Z,8.10
2018-05-26T18:39:19.997Z,9.27
2018-05-26T18:41:47.606Z,7.23
2018-05-26T18:44:15.165Z,8.57
2018-05-26T18:46:42.735Z,8.67
2018-05-26T18:49:11.149Z,7.13
2018-05-26T18:51:38.713Z,9.93
2018-05-26T18:54:06.295Z,8.13
2018-05-26T18:56:34.224Z,9.77
2018-05-26T18:59:01.789Z,8.57
2018-05-26T19:01:29.663Z,9.20
2018-05-26T19:03:57.261Z,8.57
2018-05-26T19:06:24.884Z,10.20
2018-05-26T19:08:52.513Z,10.83
2018-05-26T19:11:20.862Z,12.03
2018-05-26T19:13:48.471Z,9.20
2018-05-26T19:16:16.160Z,12.47
2018-05-26T19:18:43.912Z,12.43
2018-05-26T19:21:11.568Z,13.97
2018-05-26T19:23:39.174Z,15.50
2018-05-26T19:26:06.795Z,14.30
2018-05-26T19:28:34.555Z,11.33
2018-05-26T19:31:02.162Z,11.33
2018-05-26T19:33:29.835Z,12.30
2018-05-26T19:35:58.296Z,14.13
2018-05-26T19:38:25.881Z,15.07
2018-05-26T19:40:55.058Z,12.10
2018-05-26T19:43:24.153Z,11.33
2018-05-26T19:45:51.760Z,16.90
2018-05-26T19:48:19.385Z,13.17
2018-05-26T19:50:47.786Z,13.90
2018-05-26T19:53:15.462Z,16.93
2018-05-26T19:55:43.340Z,27.47
2018-05-26T19:58:10.963Z,27.33
2018-05-26T20:00:39.358Z,20.13
2018-05-26T20:03:07.002Z,14.60
2018-05-26T20:05:35.376Z,13.87
2018-05-26T20:08:03.902Z,12.60
2018-05-26T20:10:33.583Z,15.07
2018-05-26T20:13:01.186Z,13.07
2018-05-26T20:15:28.956Z,13.80
2018-05-26T20:17:56.750Z,14.33
2018-05-26T20:20:24.357Z,15.00
2018-05-26T20:22:51.986Z,16.70
2018-05-26T20:25:20.181Z,12.93
2018-05-26T20:27:47.767Z,14.07
2018-05-26T20:30:15.426Z,13.60
2018-05-26T20:32:43.088Z,13.03
2018-05-26T20:35:10.712Z,11.97
2018-05-26T20:37:38.374Z,13.40
2018-05-26T20:40:06.014Z,10.90
2018-05-26T20:42:34.382Z,12.47
2018-05-26T20:45:01.962Z,14.20
2018-05-26T20:47:29.656Z,13.27
2018-05-26T20:49:57.554Z,10.63
2018-05-26T20:52:25.175Z,11.93
2018-05-26T20:54:52.816Z,14.20
2018-05-26T20:57:21.368Z,12.93
2018-05-26T20:59:49.459Z,13.73
2018-05-26T21:02:17.895Z,15.93
2018-05-26T21:04:45.473Z,11.83
2018-05-26T21:07:13.072Z,15.80
2018-05-26T21:09:40.687Z,15.57
2018-05-26T21:12:08.273Z,38.60
2018-05-26T21:14:36.620Z,13.37
2018-05-26T21:17:04.361Z,12.17
2018-05-26T21:19:31.985Z,11.40
2018-05-26T21:22:00.347Z,12.83
2018-05-26T21:24:28.689Z,13.73
2018-05-26T21:26:56.638Z,13.07
2018-05-26T21:29:24.304Z,13.60
2018-05-26T21:31:51.924Z,13.90
2018-05-26T21:34:20.304Z,14.10
2018-05-26T21:36:48.718Z,14.13
2018-05-26T21:39:16.534Z,15.10
2018-05-26T21:41:44.922Z,14.93
2018-05-26T21:44:13.267Z,14.97
2018-05-26T21:46:41.394Z,15.60
2018-05-26T21:49:08.980Z,16.20
2018-05-26T21:51:36.695Z,16.33
2018-05-26T21:54:05.031Z,15.40
2018-05-26T21:56:32.678Z,15.20
2018-05-26T21:59:00.257Z,17.50
2018-05-26T22:01:27.886Z,14.57
2018-05-26T22:03:55.619Z,15.60
2018-05-26T22:06:23.246Z,17.70
2018-05-26T22:08:50.962Z,16.97
2018-05-26T22:11:18.673Z,16.53
2018-05-26T22:13:46.316Z,15.60
2018-05-26T22:16:13.886Z,15.43
2018-05-26T22:18:41.499Z,14.17
2018-05-26T22:21:09.066Z,15.37
2018-05-26T22:23:36.847Z,20.70
2018-05-26T22:26:04.476Z,15.13
2018-05-26T22:28:32.904Z,15.13
2018-05-26T22:31:00.504Z,15.27
2018-05-26T22:33:29.132Z,15.33
2018-05-26T22:35:56.816Z,17.67
2018-05-26T22:38:24.945Z,16.77
2018-05-26T22:40:53.134Z,15.93
2018-05-26T22:43:20.824Z,15.00
2018-05-26T22:45:48.474Z,15.67
2018-05-26T22:48:16.099Z,16.93
2018-05-26T22:50:43.783Z,16.90
2018-05-26T22:53:11.352Z,17.07
2018-05-26T22:55:40.191Z,14.47
2018-05-26T22:58:08.507Z,15.50
2018-05-26T23:00:36.101Z,15.50
2018-05-26T23:03:03.830Z,15.80
2018-05-26T23:05:31.430Z,15.87
2018-05-26T23:07:59.034Z,18.17
2018-05-26T23:10:26.675Z,16.73
2018-05-26T23:12:55.042Z,14.67
2018-05-26T23:15:23.392Z,17.37
2018-05-26T23:17:51.003Z,15.87
2018-05-26T23:22:53.356Z,15.63
2018-05-26T23:25:21.049Z,15.63
2018-05-26T23:27:49.401Z,16.10
2018-05-26T23:30:16.981Z,15.50
2018-05-26T23:32:45.362Z,19.03
2018-05-26T23:35:13.691Z,16.70
2018-05-26T23:37:41.291Z,16.47
2018-05-26T23:40:09.664Z,17.67
2018-05-26T23:42:38.107Z,17.20
2018-05-26T23:45:05.727Z,17.23
2018-05-26T23:47:33.314Z,16.13
2018-05-26T23:50:01.023Z,16.47
2018-05-26T23:52:29.382Z,16.60
2018-05-26T23:54:56.964Z,15.93
2018-05-26T23:57:25.323Z,17.10
2018-05-26T23:59:52.899Z,16.80
